<?xml version="1.0" encoding="UTF-8" standalone="no" ?>
<gpx xmlns="http://www.topografix.com/GPX/1/1" xmlns:xsi="http://www.w3.org/2001/XMLSchema-instance" xsi:schemaLocation="http://www.topografix.com/GPX/1/1 http://www.topografix.com/GPX/1/1/gpx.xsd" version="1.1" creator="VisuGPX - https://www.visugpx.com">
  <metadata>
    <name>Saint Julien du Sault 2</name>
    <desc><![CDATA[Bonne rando ]]></desc>
  </metadata>
  <trk>
    <name><![CDATA[St. Julien du Sault nº2]]></name>
    <trkseg>
      <trkpt lat="48.03293" lon="3.29512">
        <ele>49</ele>
        <time>2013-09-18T13:36:25Z</time>
      </trkpt>
      <trkpt lat="48.03265" lon="3.29532">
        <ele>48</ele>
        <time>2013-09-18T13:36:53Z</time>
      </trkpt>
      <trkpt lat="48.03231" lon="3.29535">
        <ele>46</ele>
        <time>2013-09-18T13:37:27Z</time>
      </trkpt>
      <trkpt lat="48.0319" lon="3.29564">
        <ele>48</ele>
        <time>2013-09-18T13:38:07Z</time>
      </trkpt>
      <trkpt lat="48.03177" lon="3.29591">
        <ele>48</ele>
        <time>2013-09-18T13:38:25Z</time>
      </trkpt>
      <trkpt lat="48.0315" lon="3.29617">
        <ele>47</ele>
        <time>2013-09-18T13:39:00Z</time>
      </trkpt>
      <trkpt lat="48.03126" lon="3.29598">
        <ele>44</ele>
        <time>2013-09-18T13:39:48Z</time>
      </trkpt>
      <trkpt lat="48.03078" lon="3.29539">
        <ele>42</ele>
        <time>2013-09-18T13:40:53Z</time>
      </trkpt>
      <trkpt lat="48.03051" lon="3.2952">
        <ele>42</ele>
        <time>2013-09-18T13:41:07Z</time>
      </trkpt>
      <trkpt lat="48.03023" lon="3.2951">
        <ele>42</ele>
        <time>2013-09-18T13:41:23Z</time>
      </trkpt>
      <trkpt lat="48.02994" lon="3.29511">
        <ele>42</ele>
        <time>2013-09-18T13:41:44Z</time>
      </trkpt>
      <trkpt lat="48.02966" lon="3.29518">
        <ele>42</ele>
        <time>2013-09-18T13:41:57Z</time>
      </trkpt>
      <trkpt lat="48.02959" lon="3.29519">
        <ele>42</ele>
        <time>2013-09-18T13:42:01Z</time>
      </trkpt>
      <trkpt lat="48.02947" lon="3.2952">
        <ele>43</ele>
        <time>2013-09-18T13:42:09Z</time>
      </trkpt>
      <trkpt lat="48.02923" lon="3.29539">
        <ele>44</ele>
        <time>2013-09-18T13:42:43Z</time>
      </trkpt>
      <trkpt lat="48.02887" lon="3.296">
        <ele>45</ele>
        <time>2013-09-18T13:43:35Z</time>
      </trkpt>
      <trkpt lat="48.0288" lon="3.29639">
        <ele>46</ele>
        <time>2013-09-18T13:43:55Z</time>
      </trkpt>
      <trkpt lat="48.0286" lon="3.29716">
        <ele>48</ele>
        <time>2013-09-18T13:44:41Z</time>
      </trkpt>
      <trkpt lat="48.02854" lon="3.29756">
        <ele>48</ele>
        <time>2013-09-18T13:44:59Z</time>
      </trkpt>
      <trkpt lat="48.02854" lon="3.29799">
        <ele>47</ele>
        <time>2013-09-18T13:45:24Z</time>
      </trkpt>
      <trkpt lat="48.02851" lon="3.29831">
        <ele>47</ele>
        <time>2013-09-18T13:45:38Z</time>
      </trkpt>
      <trkpt lat="48.0285" lon="3.29837">
        <ele>46</ele>
        <time>2013-09-18T13:45:41Z</time>
      </trkpt>
      <trkpt lat="48.02848" lon="3.29849">
        <ele>46</ele>
        <time>2013-09-18T13:45:47Z</time>
      </trkpt>
      <trkpt lat="48.02844" lon="3.29869">
        <ele>46</ele>
        <time>2013-09-18T13:45:57Z</time>
      </trkpt>
      <trkpt lat="48.02826" lon="3.2992">
        <ele>45</ele>
        <time>2013-09-18T13:46:45Z</time>
      </trkpt>
      <trkpt lat="48.02822" lon="3.29924">
        <ele>45</ele>
        <time>2013-09-18T13:46:50Z</time>
      </trkpt>
      <trkpt lat="48.02813" lon="3.29932">
        <ele>45</ele>
        <time>2013-09-18T13:46:52Z</time>
      </trkpt>
      <trkpt lat="48.02797" lon="3.29949">
        <ele>46</ele>
        <time>2013-09-18T13:47:08Z</time>
      </trkpt>
      <trkpt lat="48.02776" lon="3.29963">
        <ele>50</ele>
        <time>2013-09-18T13:47:28Z</time>
      </trkpt>
      <trkpt lat="48.02769" lon="3.29963">
        <ele>50</ele>
        <time>2013-09-18T13:47:33Z</time>
      </trkpt>
      <trkpt lat="48.02744" lon="3.29959">
        <ele>52</ele>
        <time>2013-09-18T13:47:49Z</time>
      </trkpt>
      <trkpt lat="48.0271" lon="3.29955">
        <ele>54</ele>
        <time>2013-09-18T13:48:25Z</time>
      </trkpt>
      <trkpt lat="48.02697" lon="3.29955">
        <ele>55</ele>
        <time>2013-09-18T13:48:50Z</time>
      </trkpt>
      <trkpt lat="48.02688" lon="3.29953">
        <ele>55</ele>
        <time>2013-09-18T13:49:38Z</time>
      </trkpt>
      <trkpt lat="48.0268" lon="3.29947">
        <ele>55</ele>
        <time>2013-09-18T13:49:47Z</time>
      </trkpt>
      <trkpt lat="48.0265" lon="3.29923">
        <ele>58</ele>
        <time>2013-09-18T13:50:20Z</time>
      </trkpt>
      <trkpt lat="48.02641" lon="3.29914">
        <ele>59</ele>
        <time>2013-09-18T13:50:25Z</time>
      </trkpt>
      <trkpt lat="48.02611" lon="3.29878">
        <ele>56</ele>
        <time>2013-09-18T13:50:53Z</time>
      </trkpt>
      <trkpt lat="48.02606" lon="3.29869">
        <ele>55</ele>
        <time>2013-09-18T13:50:59Z</time>
      </trkpt>
      <trkpt lat="48.02585" lon="3.29833">
        <ele>53</ele>
        <time>2013-09-18T13:51:22Z</time>
      </trkpt>
      <trkpt lat="48.0258" lon="3.29822">
        <ele>53</ele>
        <time>2013-09-18T13:51:27Z</time>
      </trkpt>
      <trkpt lat="48.02572" lon="3.29811">
        <ele>51</ele>
        <time>2013-09-18T13:51:34Z</time>
      </trkpt>
      <trkpt lat="48.02566" lon="3.298">
        <ele>51</ele>
        <time>2013-09-18T13:51:41Z</time>
      </trkpt>
      <trkpt lat="48.02548" lon="3.29761">
        <ele>49</ele>
        <time>2013-09-18T13:52:02Z</time>
      </trkpt>
      <trkpt lat="48.02545" lon="3.2975">
        <ele>47</ele>
        <time>2013-09-18T13:52:09Z</time>
      </trkpt>
      <trkpt lat="48.0254" lon="3.29739">
        <ele>46</ele>
        <time>2013-09-18T13:52:16Z</time>
      </trkpt>
      <trkpt lat="48.02528" lon="3.29709">
        <ele>43</ele>
        <time>2013-09-18T13:52:40Z</time>
      </trkpt>
      <trkpt lat="48.02525" lon="3.29677">
        <ele>42</ele>
        <time>2013-09-18T13:52:52Z</time>
      </trkpt>
      <trkpt lat="48.0251" lon="3.296">
        <ele>38</ele>
        <time>2013-09-18T13:53:30Z</time>
      </trkpt>
      <trkpt lat="48.02509" lon="3.29578">
        <ele>37</ele>
        <time>2013-09-18T13:53:44Z</time>
      </trkpt>
      <trkpt lat="48.02511" lon="3.29563">
        <ele>36</ele>
        <time>2013-09-18T13:53:56Z</time>
      </trkpt>
      <trkpt lat="48.02515" lon="3.295">
        <ele>35</ele>
        <time>2013-09-18T13:54:42Z</time>
      </trkpt>
      <trkpt lat="48.02511" lon="3.2946">
        <ele>34</ele>
        <time>2013-09-18T13:55:01Z</time>
      </trkpt>
      <trkpt lat="48.025" lon="3.29424">
        <ele>31</ele>
        <time>2013-09-18T13:55:18Z</time>
      </trkpt>
      <trkpt lat="48.02485" lon="3.29396">
        <ele>34</ele>
        <time>2013-09-18T13:55:42Z</time>
      </trkpt>
      <trkpt lat="48.02431" lon="3.29291">
        <ele>38</ele>
        <time>2013-09-18T13:56:48Z</time>
      </trkpt>
      <trkpt lat="48.02424" lon="3.29282">
        <ele>38</ele>
        <time>2013-09-18T13:56:53Z</time>
      </trkpt>
      <trkpt lat="48.02418" lon="3.29273">
        <ele>38</ele>
        <time>2013-09-18T13:56:59Z</time>
      </trkpt>
      <trkpt lat="48.02413" lon="3.29262">
        <ele>39</ele>
        <time>2013-09-18T13:57:12Z</time>
      </trkpt>
      <trkpt lat="48.02405" lon="3.29228">
        <ele>40</ele>
        <time>2013-09-18T13:57:34Z</time>
      </trkpt>
      <trkpt lat="48.02398" lon="3.29178">
        <ele>45</ele>
        <time>2013-09-18T13:58:13Z</time>
      </trkpt>
      <trkpt lat="48.02397" lon="3.29145">
        <ele>45</ele>
        <time>2013-09-18T13:58:24Z</time>
      </trkpt>
      <trkpt lat="48.02392" lon="3.29112">
        <ele>44</ele>
        <time>2013-09-18T13:58:41Z</time>
      </trkpt>
      <trkpt lat="48.02387" lon="3.29082">
        <ele>45</ele>
        <time>2013-09-18T13:59:01Z</time>
      </trkpt>
      <trkpt lat="48.02363" lon="3.28984">
        <ele>53</ele>
        <time>2013-09-18T13:59:56Z</time>
      </trkpt>
      <trkpt lat="48.02332" lon="3.28838">
        <ele>57</ele>
        <time>2013-09-18T14:01:13Z</time>
      </trkpt>
      <trkpt lat="48.0233" lon="3.28824">
        <ele>58</ele>
        <time>2013-09-18T14:01:22Z</time>
      </trkpt>
      <trkpt lat="48.02321" lon="3.28786">
        <ele>62</ele>
        <time>2013-09-18T14:01:53Z</time>
      </trkpt>
      <trkpt lat="48.02308" lon="3.28758">
        <ele>62</ele>
        <time>2013-09-18T14:02:11Z</time>
      </trkpt>
      <trkpt lat="48.02282" lon="3.28725">
        <ele>62</ele>
        <time>2013-09-18T14:02:35Z</time>
      </trkpt>
      <trkpt lat="48.02262" lon="3.28705">
        <ele>61</ele>
        <time>2013-09-18T14:02:54Z</time>
      </trkpt>
      <trkpt lat="48.02252" lon="3.28686">
        <ele>60</ele>
        <time>2013-09-18T14:03:07Z</time>
      </trkpt>
      <trkpt lat="48.02245" lon="3.28674">
        <ele>60</ele>
        <time>2013-09-18T14:03:13Z</time>
      </trkpt>
      <trkpt lat="48.02227" lon="3.28654">
        <ele>58</ele>
        <time>2013-09-18T14:03:30Z</time>
      </trkpt>
      <trkpt lat="48.02208" lon="3.28638">
        <ele>57</ele>
        <time>2013-09-18T14:03:43Z</time>
      </trkpt>
      <trkpt lat="48.02199" lon="3.28616">
        <ele>53</ele>
        <time>2013-09-18T14:04:06Z</time>
      </trkpt>
      <trkpt lat="48.02196" lon="3.28604">
        <ele>54</ele>
        <time>2013-09-18T14:04:17Z</time>
      </trkpt>
      <trkpt lat="48.02191" lon="3.28593">
        <ele>54</ele>
        <time>2013-09-18T14:04:26Z</time>
      </trkpt>
      <trkpt lat="48.02181" lon="3.28569">
        <ele>56</ele>
        <time>2013-09-18T14:04:43Z</time>
      </trkpt>
      <trkpt lat="48.02168" lon="3.28544">
        <ele>56</ele>
        <time>2013-09-18T14:04:56Z</time>
      </trkpt>
      <trkpt lat="48.02166" lon="3.2854">
        <ele>56</ele>
        <time>2013-09-18T14:04:58Z</time>
      </trkpt>
      <trkpt lat="48.02162" lon="3.2853">
        <ele>57</ele>
        <time>2013-09-18T14:05:03Z</time>
      </trkpt>
      <trkpt lat="48.02146" lon="3.28472">
        <ele>62</ele>
        <time>2013-09-18T14:05:45Z</time>
      </trkpt>
      <trkpt lat="48.0214" lon="3.2844">
        <ele>62</ele>
        <time>2013-09-18T14:06:06Z</time>
      </trkpt>
      <trkpt lat="48.02125" lon="3.28416">
        <ele>62</ele>
        <time>2013-09-18T14:06:32Z</time>
      </trkpt>
      <trkpt lat="48.02111" lon="3.2838">
        <ele>65</ele>
        <time>2013-09-18T14:06:51Z</time>
      </trkpt>
      <trkpt lat="48.02084" lon="3.28329">
        <ele>66</ele>
        <time>2013-09-18T14:07:37Z</time>
      </trkpt>
      <trkpt lat="48.0206" lon="3.28309">
        <ele>73</ele>
        <time>2013-09-18T14:11:04Z</time>
      </trkpt>
      <trkpt lat="48.0206" lon="3.28309">
        <ele>73</ele>
        <time>2013-09-18T14:11:04Z</time>
      </trkpt>
      <trkpt lat="48.01938" lon="3.28238">
        <ele>78</ele>
        <time>2013-09-18T14:13:12Z</time>
      </trkpt>
      <trkpt lat="48.0183" lon="3.28226">
        <ele>81</ele>
        <time>2013-09-18T14:15:00Z</time>
      </trkpt>
      <trkpt lat="48.01794" lon="3.28229">
        <ele>86</ele>
        <time>2013-09-18T14:15:24Z</time>
      </trkpt>
      <trkpt lat="48.01775" lon="3.28199">
        <ele>89</ele>
        <time>2013-09-18T14:15:48Z</time>
      </trkpt>
      <trkpt lat="48.01754" lon="3.28203">
        <ele>92</ele>
        <time>2013-09-18T14:16:20Z</time>
      </trkpt>
      <trkpt lat="48.0172" lon="3.28172">
        <ele>96</ele>
        <time>2013-09-18T14:17:09Z</time>
      </trkpt>
      <trkpt lat="48.01653" lon="3.28123">
        <ele>103</ele>
        <time>2013-09-18T14:18:24Z</time>
      </trkpt>
      <trkpt lat="48.01601" lon="3.28088">
        <ele>107</ele>
        <time>2013-09-18T14:19:12Z</time>
      </trkpt>
      <trkpt lat="48.01591" lon="3.28084">
        <ele>107</ele>
        <time>2013-09-18T14:19:22Z</time>
      </trkpt>
      <trkpt lat="48.01565" lon="3.2807">
        <ele>108</ele>
        <time>2013-09-18T14:19:59Z</time>
      </trkpt>
      <trkpt lat="48.01546" lon="3.28056">
        <ele>108</ele>
        <time>2013-09-18T14:20:16Z</time>
      </trkpt>
      <trkpt lat="48.01543" lon="3.28053">
        <ele>108</ele>
        <time>2013-09-18T14:20:18Z</time>
      </trkpt>
      <trkpt lat="48.01534" lon="3.28048">
        <ele>107</ele>
        <time>2013-09-18T14:20:31Z</time>
      </trkpt>
      <trkpt lat="48.01468" lon="3.28015">
        <ele>116</ele>
        <time>2013-09-18T14:21:41Z</time>
      </trkpt>
      <trkpt lat="48.01451" lon="3.28008">
        <ele>115</ele>
        <time>2013-09-18T14:21:56Z</time>
      </trkpt>
      <trkpt lat="48.01443" lon="3.28007">
        <ele>115</ele>
        <time>2013-09-18T14:22:05Z</time>
      </trkpt>
      <trkpt lat="48.01404" lon="3.28003">
        <ele>113</ele>
        <time>2013-09-18T14:22:53Z</time>
      </trkpt>
      <trkpt lat="48.01377" lon="3.2801">
        <ele>116</ele>
        <time>2013-09-18T14:23:12Z</time>
      </trkpt>
      <trkpt lat="48.01339" lon="3.28018">
        <ele>121</ele>
        <time>2013-09-18T14:23:43Z</time>
      </trkpt>
      <trkpt lat="48.01326" lon="3.28023">
        <ele>123</ele>
        <time>2013-09-18T14:23:56Z</time>
      </trkpt>
      <trkpt lat="48.01305" lon="3.28029">
        <ele>124</ele>
        <time>2013-09-18T14:24:20Z</time>
      </trkpt>
      <trkpt lat="48.01304" lon="3.28029">
        <ele>124</ele>
        <time>2013-09-18T14:24:21Z</time>
      </trkpt>
      <trkpt lat="48.01294" lon="3.28028">
        <ele>126</ele>
        <time>2013-09-18T14:24:29Z</time>
      </trkpt>
      <trkpt lat="48.01239" lon="3.28013">
        <ele>133</ele>
        <time>2013-09-18T14:26:24Z</time>
      </trkpt>
      <trkpt lat="48.01213" lon="3.27999">
        <ele>136</ele>
        <time>2013-09-18T14:26:44Z</time>
      </trkpt>
      <trkpt lat="48.01166" lon="3.27978">
        <ele>137</ele>
        <time>2013-09-18T14:27:21Z</time>
      </trkpt>
      <trkpt lat="48.01159" lon="3.2797">
        <ele>135</ele>
        <time>2013-09-18T14:27:29Z</time>
      </trkpt>
      <trkpt lat="48.01127" lon="3.27942">
        <ele>132</ele>
        <time>2013-09-18T14:28:01Z</time>
      </trkpt>
      <trkpt lat="48.01118" lon="3.27936">
        <ele>130</ele>
        <time>2013-09-18T14:28:09Z</time>
      </trkpt>
      <trkpt lat="48.011" lon="3.27917">
        <ele>127</ele>
        <time>2013-09-18T14:28:27Z</time>
      </trkpt>
      <trkpt lat="48.0106" lon="3.27879">
        <ele>126</ele>
        <time>2013-09-18T14:29:22Z</time>
      </trkpt>
      <trkpt lat="48.01051" lon="3.27917">
        <ele>128</ele>
        <time>2013-09-18T14:29:57Z</time>
      </trkpt>
      <trkpt lat="48.01045" lon="3.27938">
        <ele>129</ele>
        <time>2013-09-18T14:30:07Z</time>
      </trkpt>
      <trkpt lat="48.0104" lon="3.2795">
        <ele>130</ele>
        <time>2013-09-18T14:30:18Z</time>
      </trkpt>
      <trkpt lat="48.01031" lon="3.2796">
        <ele>130</ele>
        <time>2013-09-18T14:30:31Z</time>
      </trkpt>
      <trkpt lat="48.0101" lon="3.2796">
        <ele>127</ele>
        <time>2013-09-18T14:30:58Z</time>
      </trkpt>
      <trkpt lat="48.01009" lon="3.27961">
        <ele>127</ele>
        <time>2013-09-18T14:30:59Z</time>
      </trkpt>
      <trkpt lat="48.01002" lon="3.27967">
        <ele>127</ele>
        <time>2013-09-18T14:31:07Z</time>
      </trkpt>
      <trkpt lat="48.00994" lon="3.2798">
        <ele>127</ele>
        <time>2013-09-18T14:31:16Z</time>
      </trkpt>
      <trkpt lat="48.00988" lon="3.27999">
        <ele>126</ele>
        <time>2013-09-18T14:31:31Z</time>
      </trkpt>
      <trkpt lat="48.00984" lon="3.28009">
        <ele>126</ele>
        <time>2013-09-18T14:31:40Z</time>
      </trkpt>
      <trkpt lat="48.00976" lon="3.28023">
        <ele>127</ele>
        <time>2013-09-18T14:31:53Z</time>
      </trkpt>
      <trkpt lat="48.00971" lon="3.28039">
        <ele>128</ele>
        <time>2013-09-18T14:32:02Z</time>
      </trkpt>
      <trkpt lat="48.00961" lon="3.2806">
        <ele>128</ele>
        <time>2013-09-18T14:32:13Z</time>
      </trkpt>
      <trkpt lat="48.00956" lon="3.28071">
        <ele>130</ele>
        <time>2013-09-18T14:32:19Z</time>
      </trkpt>
      <trkpt lat="48.00939" lon="3.28106">
        <ele>132</ele>
        <time>2013-09-18T14:32:48Z</time>
      </trkpt>
      <trkpt lat="48.00916" lon="3.28158">
        <ele>136</ele>
        <time>2013-09-18T14:33:24Z</time>
      </trkpt>
      <trkpt lat="48.00912" lon="3.2817">
        <ele>135</ele>
        <time>2013-09-18T14:33:33Z</time>
      </trkpt>
      <trkpt lat="48.009" lon="3.28196">
        <ele>134</ele>
        <time>2013-09-18T14:33:50Z</time>
      </trkpt>
      <trkpt lat="48.00854" lon="3.28291">
        <ele>128</ele>
        <time>2013-09-18T14:35:02Z</time>
      </trkpt>
      <trkpt lat="48.00835" lon="3.28318">
        <ele>128</ele>
        <time>2013-09-18T14:35:27Z</time>
      </trkpt>
      <trkpt lat="48.00833" lon="3.28317">
        <ele>129</ele>
        <time>2013-09-18T14:35:31Z</time>
      </trkpt>
      <trkpt lat="48.00826" lon="3.28316">
        <ele>130</ele>
        <time>2013-09-18T14:35:37Z</time>
      </trkpt>
      <trkpt lat="48.00813" lon="3.28304">
        <ele>130</ele>
        <time>2013-09-18T14:35:57Z</time>
      </trkpt>
      <trkpt lat="48.00771" lon="3.28267">
        <ele>129</ele>
        <time>2013-09-18T14:36:39Z</time>
      </trkpt>
      <trkpt lat="48.00764" lon="3.28262">
        <ele>130</ele>
        <time>2013-09-18T14:36:46Z</time>
      </trkpt>
      <trkpt lat="48.00748" lon="3.28249">
        <ele>131</ele>
        <time>2013-09-18T14:37:04Z</time>
      </trkpt>
      <trkpt lat="48.00734" lon="3.28235">
        <ele>131</ele>
        <time>2013-09-18T14:37:19Z</time>
      </trkpt>
      <trkpt lat="48.00723" lon="3.2822">
        <ele>130</ele>
        <time>2013-09-18T14:37:29Z</time>
      </trkpt>
      <trkpt lat="48.00704" lon="3.28204">
        <ele>131</ele>
        <time>2013-09-18T14:37:50Z</time>
      </trkpt>
      <trkpt lat="48.00697" lon="3.28198">
        <ele>131</ele>
        <time>2013-09-18T14:37:56Z</time>
      </trkpt>
      <trkpt lat="48.00691" lon="3.28191">
        <ele>133</ele>
        <time>2013-09-18T14:38:01Z</time>
      </trkpt>
      <trkpt lat="48.00684" lon="3.2818">
        <ele>133</ele>
        <time>2013-09-18T14:38:10Z</time>
      </trkpt>
      <trkpt lat="48.00678" lon="3.28172">
        <ele>133</ele>
        <time>2013-09-18T14:38:15Z</time>
      </trkpt>
      <trkpt lat="48.00671" lon="3.28166">
        <ele>134</ele>
        <time>2013-09-18T14:38:24Z</time>
      </trkpt>
      <trkpt lat="48.00671" lon="3.28166">
        <ele>134</ele>
        <time>2013-09-18T14:38:24Z</time>
      </trkpt>
      <trkpt lat="48.00544" lon="3.28047">
        <ele>137</ele>
        <time>2013-09-18T14:41:10Z</time>
      </trkpt>
      <trkpt lat="48.00525" lon="3.28012">
        <ele>137</ele>
        <time>2013-09-18T14:41:14Z</time>
      </trkpt>
      <trkpt lat="48.00504" lon="3.27988">
        <ele>138</ele>
        <time>2013-09-18T14:41:39Z</time>
      </trkpt>
      <trkpt lat="48.00462" lon="3.27955">
        <ele>138</ele>
        <time>2013-09-18T14:42:32Z</time>
      </trkpt>
      <trkpt lat="48.0039" lon="3.2788">
        <ele>139</ele>
        <time>2013-09-18T14:43:31Z</time>
      </trkpt>
      <trkpt lat="48.00357" lon="3.27855">
        <ele>139</ele>
        <time>2013-09-18T14:44:03Z</time>
      </trkpt>
      <trkpt lat="48.00339" lon="3.27823">
        <ele>138</ele>
        <time>2013-09-18T14:44:27Z</time>
      </trkpt>
      <trkpt lat="48.00314" lon="3.27801">
        <ele>139</ele>
        <time>2013-09-18T14:44:54Z</time>
      </trkpt>
      <trkpt lat="48.00314" lon="3.27801">
        <ele>139</ele>
        <time>2013-09-18T14:44:54Z</time>
      </trkpt>
      <trkpt lat="48.00224" lon="3.27634">
        <ele>141</ele>
        <time>2013-09-18T14:49:45Z</time>
      </trkpt>
      <trkpt lat="48.00251" lon="3.27618">
        <ele>141</ele>
        <time>2013-09-18T14:50:02Z</time>
      </trkpt>
      <trkpt lat="48.00282" lon="3.27585">
        <ele>141</ele>
        <time>2013-09-18T14:50:38Z</time>
      </trkpt>
      <trkpt lat="48.00358" lon="3.2752">
        <ele>142</ele>
        <time>2013-09-18T14:52:08Z</time>
      </trkpt>
      <trkpt lat="48.00404" lon="3.27452">
        <ele>150</ele>
        <time>2013-09-18T14:52:50Z</time>
      </trkpt>
      <trkpt lat="48.00445" lon="3.2742">
        <ele>140</ele>
        <time>2013-09-18T14:53:45Z</time>
      </trkpt>
      <trkpt lat="48.00445" lon="3.2742">
        <ele>140</ele>
        <time>2013-09-18T14:53:45Z</time>
      </trkpt>
      <trkpt lat="48.00486" lon="3.27386">
        <ele>135</ele>
        <time>2013-09-18T14:54:39Z</time>
      </trkpt>
      <trkpt lat="48.00512" lon="3.27375">
        <ele>135</ele>
        <time>2013-09-18T14:55:10Z</time>
      </trkpt>
      <trkpt lat="48.00533" lon="3.27375">
        <ele>136</ele>
        <time>2013-09-18T14:55:23Z</time>
      </trkpt>
      <trkpt lat="48.0056" lon="3.27378">
        <ele>135</ele>
        <time>2013-09-18T14:55:34Z</time>
      </trkpt>
      <trkpt lat="48.00581" lon="3.27375">
        <ele>134</ele>
        <time>2013-09-18T14:55:52Z</time>
      </trkpt>
      <trkpt lat="48.00608" lon="3.27368">
        <ele>134</ele>
        <time>2013-09-18T14:56:19Z</time>
      </trkpt>
      <trkpt lat="48.00656" lon="3.27338">
        <ele>136</ele>
        <time>2013-09-18T14:57:17Z</time>
      </trkpt>
      <trkpt lat="48.00678" lon="3.2731">
        <ele>137</ele>
        <time>2013-09-18T14:57:41Z</time>
      </trkpt>
      <trkpt lat="48.00703" lon="3.27289">
        <ele>139</ele>
        <time>2013-09-18T14:58:01Z</time>
      </trkpt>
      <trkpt lat="48.00699" lon="3.2728">
        <ele>139</ele>
        <time>2013-09-18T14:58:13Z</time>
      </trkpt>
      <trkpt lat="48.00694" lon="3.27268">
        <ele>138</ele>
        <time>2013-09-18T14:58:22Z</time>
      </trkpt>
      <trkpt lat="48.00676" lon="3.27235">
        <ele>138</ele>
        <time>2013-09-18T14:58:51Z</time>
      </trkpt>
      <trkpt lat="48.00635" lon="3.27159">
        <ele>136</ele>
        <time>2013-09-18T14:59:41Z</time>
      </trkpt>
      <trkpt lat="48.00632" lon="3.27147">
        <ele>135</ele>
        <time>2013-09-18T14:59:48Z</time>
      </trkpt>
      <trkpt lat="48.00625" lon="3.27127">
        <ele>134</ele>
        <time>2013-09-18T14:59:58Z</time>
      </trkpt>
      <trkpt lat="48.00619" lon="3.27116">
        <ele>134</ele>
        <time>2013-09-18T15:00:04Z</time>
      </trkpt>
      <trkpt lat="48.00609" lon="3.27105">
        <ele>132</ele>
        <time>2013-09-18T15:00:13Z</time>
      </trkpt>
      <trkpt lat="48.00594" lon="3.27091">
        <ele>134</ele>
        <time>2013-09-18T15:00:31Z</time>
      </trkpt>
      <trkpt lat="48.00587" lon="3.27082">
        <ele>134</ele>
        <time>2013-09-18T15:00:39Z</time>
      </trkpt>
      <trkpt lat="48.0056" lon="3.27051">
        <ele>136</ele>
        <time>2013-09-18T15:01:03Z</time>
      </trkpt>
      <trkpt lat="48.00531" lon="3.27025">
        <ele>135</ele>
        <time>2013-09-18T15:01:26Z</time>
      </trkpt>
      <trkpt lat="48.00499" lon="3.27004">
        <ele>135</ele>
        <time>2013-09-18T15:01:55Z</time>
      </trkpt>
      <trkpt lat="48.00486" lon="3.27004">
        <ele>135</ele>
        <time>2013-09-18T15:02:05Z</time>
      </trkpt>
      <trkpt lat="48.00456" lon="3.26998">
        <ele>133</ele>
        <time>2013-09-18T15:02:35Z</time>
      </trkpt>
      <trkpt lat="48.00449" lon="3.2699">
        <ele>133</ele>
        <time>2013-09-18T15:02:47Z</time>
      </trkpt>
      <trkpt lat="48.00399" lon="3.26931">
        <ele>133</ele>
        <time>2013-09-18T15:03:28Z</time>
      </trkpt>
      <trkpt lat="48.0039" lon="3.26922">
        <ele>132</ele>
        <time>2013-09-18T15:03:34Z</time>
      </trkpt>
      <trkpt lat="48.00379" lon="3.26911">
        <ele>132</ele>
        <time>2013-09-18T15:03:44Z</time>
      </trkpt>
      <trkpt lat="48.00351" lon="3.26884">
        <ele>132</ele>
        <time>2013-09-18T15:04:13Z</time>
      </trkpt>
      <trkpt lat="48.00341" lon="3.26878">
        <ele>132</ele>
        <time>2013-09-18T15:04:21Z</time>
      </trkpt>
      <trkpt lat="48.00326" lon="3.26866">
        <ele>133</ele>
        <time>2013-09-18T15:04:37Z</time>
      </trkpt>
      <trkpt lat="48.00321" lon="3.26835">
        <ele>138</ele>
        <time>2013-09-18T15:05:38Z</time>
      </trkpt>
      <trkpt lat="48.00304" lon="3.26754">
        <ele>139</ele>
        <time>2013-09-18T15:06:29Z</time>
      </trkpt>
      <trkpt lat="48.00285" lon="3.267">
        <ele>140</ele>
        <time>2013-09-18T15:07:10Z</time>
      </trkpt>
      <trkpt lat="48.00271" lon="3.26644">
        <ele>140</ele>
        <time>2013-09-18T15:07:45Z</time>
      </trkpt>
      <trkpt lat="48.00271" lon="3.26611">
        <ele>141</ele>
        <time>2013-09-18T15:07:59Z</time>
      </trkpt>
      <trkpt lat="48.0027" lon="3.26604">
        <ele>142</ele>
        <time>2013-09-18T15:08:02Z</time>
      </trkpt>
      <trkpt lat="48.00267" lon="3.26592">
        <ele>143</ele>
        <time>2013-09-18T15:08:09Z</time>
      </trkpt>
      <trkpt lat="48.00261" lon="3.26575">
        <ele>144</ele>
        <time>2013-09-18T15:08:20Z</time>
      </trkpt>
      <trkpt lat="48.00254" lon="3.26549">
        <ele>142</ele>
        <time>2013-09-18T15:08:35Z</time>
      </trkpt>
      <trkpt lat="48.00254" lon="3.26529">
        <ele>140</ele>
        <time>2013-09-18T15:08:47Z</time>
      </trkpt>
      <trkpt lat="48.00256" lon="3.26495">
        <ele>136</ele>
        <time>2013-09-18T15:09:05Z</time>
      </trkpt>
      <trkpt lat="48.00259" lon="3.26482">
        <ele>136</ele>
        <time>2013-09-18T15:09:12Z</time>
      </trkpt>
      <trkpt lat="48.00265" lon="3.26468">
        <ele>136</ele>
        <time>2013-09-18T15:09:20Z</time>
      </trkpt>
      <trkpt lat="48.00271" lon="3.26456">
        <ele>134</ele>
        <time>2013-09-18T15:09:27Z</time>
      </trkpt>
      <trkpt lat="48.00278" lon="3.26447">
        <ele>137</ele>
        <time>2013-09-18T15:09:35Z</time>
      </trkpt>
      <trkpt lat="48.00291" lon="3.26428">
        <ele>136</ele>
        <time>2013-09-18T15:09:51Z</time>
      </trkpt>
      <trkpt lat="48.00296" lon="3.26415">
        <ele>135</ele>
        <time>2013-09-18T15:09:58Z</time>
      </trkpt>
      <trkpt lat="48.00315" lon="3.26376">
        <ele>138</ele>
        <time>2013-09-18T15:10:20Z</time>
      </trkpt>
      <trkpt lat="48.00323" lon="3.26364">
        <ele>137</ele>
        <time>2013-09-18T15:10:32Z</time>
      </trkpt>
      <trkpt lat="48.00369" lon="3.26289">
        <ele>138</ele>
        <time>2013-09-18T15:11:27Z</time>
      </trkpt>
      <trkpt lat="48.00383" lon="3.26278">
        <ele>138</ele>
        <time>2013-09-18T15:11:46Z</time>
      </trkpt>
      <trkpt lat="48.00404" lon="3.263">
        <ele>137</ele>
        <time>2013-09-18T15:12:28Z</time>
      </trkpt>
      <trkpt lat="48.00413" lon="3.26309">
        <ele>137</ele>
        <time>2013-09-18T15:12:38Z</time>
      </trkpt>
      <trkpt lat="48.00436" lon="3.26332">
        <ele>139</ele>
        <time>2013-09-18T15:13:00Z</time>
      </trkpt>
      <trkpt lat="48.00488" lon="3.26383">
        <ele>139</ele>
        <time>2013-09-18T15:13:45Z</time>
      </trkpt>
      <trkpt lat="48.00508" lon="3.26396">
        <ele>139</ele>
        <time>2013-09-18T15:14:02Z</time>
      </trkpt>
      <trkpt lat="48.00509" lon="3.26397">
        <ele>140</ele>
        <time>2013-09-18T15:14:03Z</time>
      </trkpt>
      <trkpt lat="48.00525" lon="3.26411">
        <ele>141</ele>
        <time>2013-09-18T15:14:17Z</time>
      </trkpt>
      <trkpt lat="48.00531" lon="3.26421">
        <ele>141</ele>
        <time>2013-09-18T15:14:26Z</time>
      </trkpt>
      <trkpt lat="48.00539" lon="3.26427">
        <ele>141</ele>
        <time>2013-09-18T15:14:32Z</time>
      </trkpt>
      <trkpt lat="48.00571" lon="3.26452">
        <ele>137</ele>
        <time>2013-09-18T15:15:00Z</time>
      </trkpt>
      <trkpt lat="48.00591" lon="3.2647">
        <ele>135</ele>
        <time>2013-09-18T15:15:25Z</time>
      </trkpt>
      <trkpt lat="48.0063" lon="3.265">
        <ele>133</ele>
        <time>2013-09-18T15:15:58Z</time>
      </trkpt>
      <trkpt lat="48.00646" lon="3.26511">
        <ele>132</ele>
        <time>2013-09-18T15:16:15Z</time>
      </trkpt>
      <trkpt lat="48.00668" lon="3.26515">
        <ele>132</ele>
        <time>2013-09-18T15:16:39Z</time>
      </trkpt>
      <trkpt lat="48.00756" lon="3.26529">
        <ele>132</ele>
        <time>2013-09-18T15:17:32Z</time>
      </trkpt>
      <trkpt lat="48.00764" lon="3.26532">
        <ele>132</ele>
        <time>2013-09-18T15:17:37Z</time>
      </trkpt>
      <trkpt lat="48.00794" lon="3.26541">
        <ele>129</ele>
        <time>2013-09-18T15:18:02Z</time>
      </trkpt>
      <trkpt lat="48.0081" lon="3.26549">
        <ele>129</ele>
        <time>2013-09-18T15:18:19Z</time>
      </trkpt>
      <trkpt lat="48.00828" lon="3.26568">
        <ele>130</ele>
        <time>2013-09-18T15:18:38Z</time>
      </trkpt>
      <trkpt lat="48.00903" lon="3.26629">
        <ele>130</ele>
        <time>2013-09-18T15:19:41Z</time>
      </trkpt>
      <trkpt lat="48.00923" lon="3.2664">
        <ele>130</ele>
        <time>2013-09-18T15:20:00Z</time>
      </trkpt>
      <trkpt lat="48.00945" lon="3.26643">
        <ele>130</ele>
        <time>2013-09-18T15:20:13Z</time>
      </trkpt>
      <trkpt lat="48.00947" lon="3.26643">
        <ele>129</ele>
        <time>2013-09-18T15:20:14Z</time>
      </trkpt>
      <trkpt lat="48.00968" lon="3.26649">
        <ele>127</ele>
        <time>2013-09-18T15:20:34Z</time>
      </trkpt>
      <trkpt lat="48.00975" lon="3.26656">
        <ele>127</ele>
        <time>2013-09-18T15:20:43Z</time>
      </trkpt>
      <trkpt lat="48.01009" lon="3.26687">
        <ele>128</ele>
        <time>2013-09-18T15:21:12Z</time>
      </trkpt>
      <trkpt lat="48.01016" lon="3.26692">
        <ele>127</ele>
        <time>2013-09-18T15:21:16Z</time>
      </trkpt>
      <trkpt lat="48.01046" lon="3.26712">
        <ele>130</ele>
        <time>2013-09-18T15:21:38Z</time>
      </trkpt>
      <trkpt lat="48.01056" lon="3.26721">
        <ele>128</ele>
        <time>2013-09-18T15:21:48Z</time>
      </trkpt>
      <trkpt lat="48.01112" lon="3.26765">
        <ele>129</ele>
        <time>2013-09-18T15:22:48Z</time>
      </trkpt>
      <trkpt lat="48.01138" lon="3.26792">
        <ele>127</ele>
        <time>2013-09-18T15:23:21Z</time>
      </trkpt>
      <trkpt lat="48.01211" lon="3.26859">
        <ele>130</ele>
        <time>2013-09-18T15:24:39Z</time>
      </trkpt>
      <trkpt lat="48.01226" lon="3.26881">
        <ele>127</ele>
        <time>2013-09-18T15:24:56Z</time>
      </trkpt>
      <trkpt lat="48.01293" lon="3.26972">
        <ele>119</ele>
        <time>2013-09-18T15:26:19Z</time>
      </trkpt>
      <trkpt lat="48.01313" lon="3.26982">
        <ele>119</ele>
        <time>2013-09-18T15:26:34Z</time>
      </trkpt>
      <trkpt lat="48.01333" lon="3.26997">
        <ele>118</ele>
        <time>2013-09-18T15:26:48Z</time>
      </trkpt>
      <trkpt lat="48.01344" lon="3.27005">
        <ele>118</ele>
        <time>2013-09-18T15:26:56Z</time>
      </trkpt>
      <trkpt lat="48.01356" lon="3.27016">
        <ele>118</ele>
        <time>2013-09-18T15:27:07Z</time>
      </trkpt>
      <trkpt lat="48.01409" lon="3.27058">
        <ele>119</ele>
        <time>2013-09-18T15:27:55Z</time>
      </trkpt>
      <trkpt lat="48.01449" lon="3.27104">
        <ele>127</ele>
        <time>2013-09-18T15:29:48Z</time>
      </trkpt>
      <trkpt lat="48.01487" lon="3.27133">
        <ele>132</ele>
        <time>2013-09-18T15:32:48Z</time>
      </trkpt>
      <trkpt lat="48.01487" lon="3.27133">
        <ele>131</ele>
        <time>2013-09-18T15:32:49Z</time>
      </trkpt>
      <trkpt lat="48.01506" lon="3.27151">
        <ele>132</ele>
        <time>2013-09-18T15:33:11Z</time>
      </trkpt>
      <trkpt lat="48.01525" lon="3.27183">
        <ele>133</ele>
        <time>2013-09-18T15:33:41Z</time>
      </trkpt>
      <trkpt lat="48.01542" lon="3.27202">
        <ele>134</ele>
        <time>2013-09-18T15:33:56Z</time>
      </trkpt>
      <trkpt lat="48.01593" lon="3.27269">
        <ele>133</ele>
        <time>2013-09-18T15:34:56Z</time>
      </trkpt>
      <trkpt lat="48.01619" lon="3.27298">
        <ele>131</ele>
        <time>2013-09-18T15:35:22Z</time>
      </trkpt>
      <trkpt lat="48.01637" lon="3.2733">
        <ele>131</ele>
        <time>2013-09-18T15:35:54Z</time>
      </trkpt>
      <trkpt lat="48.01654" lon="3.27344">
        <ele>130</ele>
        <time>2013-09-18T15:36:09Z</time>
      </trkpt>
      <trkpt lat="48.01661" lon="3.27349">
        <ele>130</ele>
        <time>2013-09-18T15:36:10Z</time>
      </trkpt>
      <trkpt lat="48.01689" lon="3.27372">
        <ele>131</ele>
        <time>2013-09-18T15:36:34Z</time>
      </trkpt>
      <trkpt lat="48.01706" lon="3.27391">
        <ele>131</ele>
        <time>2013-09-18T15:36:50Z</time>
      </trkpt>
      <trkpt lat="48.01725" lon="3.2742">
        <ele>130</ele>
        <time>2013-09-18T15:37:25Z</time>
      </trkpt>
      <trkpt lat="48.0176" lon="3.27483">
        <ele>132</ele>
        <time>2013-09-18T15:38:12Z</time>
      </trkpt>
      <trkpt lat="48.01782" lon="3.27513">
        <ele>131</ele>
        <time>2013-09-18T15:38:28Z</time>
      </trkpt>
      <trkpt lat="48.01796" lon="3.27548">
        <ele>130</ele>
        <time>2013-09-18T15:38:52Z</time>
      </trkpt>
      <trkpt lat="48.01832" lon="3.2761">
        <ele>130</ele>
        <time>2013-09-18T15:39:25Z</time>
      </trkpt>
      <trkpt lat="48.0184" lon="3.27649">
        <ele>130</ele>
        <time>2013-09-18T15:39:51Z</time>
      </trkpt>
      <trkpt lat="48.01865" lon="3.27692">
        <ele>130</ele>
        <time>2013-09-18T15:40:31Z</time>
      </trkpt>
      <trkpt lat="48.01889" lon="3.27712">
        <ele>132</ele>
        <time>2013-09-18T15:40:49Z</time>
      </trkpt>
      <trkpt lat="48.01915" lon="3.2775">
        <ele>132</ele>
        <time>2013-09-18T15:41:16Z</time>
      </trkpt>
      <trkpt lat="48.01982" lon="3.27826">
        <ele>131</ele>
        <time>2013-09-18T15:42:33Z</time>
      </trkpt>
      <trkpt lat="48.02102" lon="3.27925">
        <ele>130</ele>
        <time>2013-09-18T15:44:19Z</time>
      </trkpt>
      <trkpt lat="48.02137" lon="3.27969">
        <ele>131</ele>
        <time>2013-09-18T15:45:05Z</time>
      </trkpt>
      <trkpt lat="48.02178" lon="3.28004">
        <ele>132</ele>
        <time>2013-09-18T15:45:33Z</time>
      </trkpt>
      <trkpt lat="48.02204" lon="3.28017">
        <ele>130</ele>
        <time>2013-09-18T15:45:54Z</time>
      </trkpt>
      <trkpt lat="48.02222" lon="3.28048">
        <ele>129</ele>
        <time>2013-09-18T15:46:24Z</time>
      </trkpt>
      <trkpt lat="48.02237" lon="3.28082">
        <ele>128</ele>
        <time>2013-09-18T15:46:45Z</time>
      </trkpt>
      <trkpt lat="48.02281" lon="3.28109">
        <ele>127</ele>
        <time>2013-09-18T15:47:44Z</time>
      </trkpt>
      <trkpt lat="48.0232" lon="3.28145">
        <ele>127</ele>
        <time>2013-09-18T15:48:14Z</time>
      </trkpt>
      <trkpt lat="48.02363" lon="3.28176">
        <ele>125</ele>
        <time>2013-09-18T15:48:50Z</time>
      </trkpt>
      <trkpt lat="48.02407" lon="3.28192">
        <ele>121</ele>
        <time>2013-09-18T15:49:20Z</time>
      </trkpt>
      <trkpt lat="48.02465" lon="3.28231">
        <ele>120</ele>
        <time>2013-09-18T15:50:04Z</time>
      </trkpt>
      <trkpt lat="48.02561" lon="3.28254">
        <ele>116</ele>
        <time>2013-09-18T15:51:56Z</time>
      </trkpt>
      <trkpt lat="48.02619" lon="3.28319">
        <ele>92</ele>
        <time>2013-09-18T15:52:41Z</time>
      </trkpt>
      <trkpt lat="48.02646" lon="3.28382">
        <ele>73</ele>
        <time>2013-09-18T15:53:52Z</time>
      </trkpt>
      <trkpt lat="48.0268" lon="3.28425">
        <ele>68</ele>
        <time>2013-09-18T15:54:32Z</time>
      </trkpt>
      <trkpt lat="48.027" lon="3.28462">
        <ele>65</ele>
        <time>2013-09-18T15:55:01Z</time>
      </trkpt>
      <trkpt lat="48.02715" lon="3.28497">
        <ele>62</ele>
        <time>2013-09-18T15:55:20Z</time>
      </trkpt>
      <trkpt lat="48.02736" lon="3.28523">
        <ele>59</ele>
        <time>2013-09-18T15:55:51Z</time>
      </trkpt>
      <trkpt lat="48.02749" lon="3.28558">
        <ele>37</ele>
        <time>2013-09-18T16:00:01Z</time>
      </trkpt>
      <trkpt lat="48.02769" lon="3.2861">
        <ele>37</ele>
        <time>2013-09-18T16:00:33Z</time>
      </trkpt>
      <trkpt lat="48.02833" lon="3.28806">
        <ele>38</ele>
        <time>2013-09-18T16:02:49Z</time>
      </trkpt>
      <trkpt lat="48.02841" lon="3.28848">
        <ele>38</ele>
        <time>2013-09-18T16:03:11Z</time>
      </trkpt>
      <trkpt lat="48.02853" lon="3.28904">
        <ele>37</ele>
        <time>2013-09-18T16:03:43Z</time>
      </trkpt>
      <trkpt lat="48.02857" lon="3.28917">
        <ele>37</ele>
        <time>2013-09-18T16:03:51Z</time>
      </trkpt>
      <trkpt lat="48.02871" lon="3.28958">
        <ele>36</ele>
        <time>2013-09-18T16:04:21Z</time>
      </trkpt>
      <trkpt lat="48.02875" lon="3.2898">
        <ele>37</ele>
        <time>2013-09-18T16:04:32Z</time>
      </trkpt>
      <trkpt lat="48.02877" lon="3.28993">
        <ele>36</ele>
        <time>2013-09-18T16:04:38Z</time>
      </trkpt>
      <trkpt lat="48.02883" lon="3.29019">
        <ele>36</ele>
        <time>2013-09-18T16:04:53Z</time>
      </trkpt>
      <trkpt lat="48.0289" lon="3.29031">
        <ele>37</ele>
        <time>2013-09-18T16:04:59Z</time>
      </trkpt>
      <trkpt lat="48.02896" lon="3.29043">
        <ele>36</ele>
        <time>2013-09-18T16:05:06Z</time>
      </trkpt>
      <trkpt lat="48.02899" lon="3.29054">
        <ele>37</ele>
        <time>2013-09-18T16:05:16Z</time>
      </trkpt>
      <trkpt lat="48.02904" lon="3.29075">
        <ele>36</ele>
        <time>2013-09-18T16:05:29Z</time>
      </trkpt>
      <trkpt lat="48.02915" lon="3.29116">
        <ele>36</ele>
        <time>2013-09-18T16:05:55Z</time>
      </trkpt>
      <trkpt lat="48.02922" lon="3.2915">
        <ele>36</ele>
        <time>2013-09-18T16:06:25Z</time>
      </trkpt>
      <trkpt lat="48.02933" lon="3.29193">
        <ele>36</ele>
        <time>2013-09-18T16:06:44Z</time>
      </trkpt>
      <trkpt lat="48.02937" lon="3.29205">
        <ele>36</ele>
        <time>2013-09-18T16:06:50Z</time>
      </trkpt>
      <trkpt lat="48.0295" lon="3.29259">
        <ele>38</ele>
        <time>2013-09-18T16:07:22Z</time>
      </trkpt>
      <trkpt lat="48.02955" lon="3.29288">
        <ele>38</ele>
        <time>2013-09-18T16:07:38Z</time>
      </trkpt>
      <trkpt lat="48.02955" lon="3.29303">
        <ele>39</ele>
        <time>2013-09-18T16:07:45Z</time>
      </trkpt>
      <trkpt lat="48.02952" lon="3.29347">
        <ele>39</ele>
        <time>2013-09-18T16:08:10Z</time>
      </trkpt>
      <trkpt lat="48.02951" lon="3.2936">
        <ele>39</ele>
        <time>2013-09-18T16:08:21Z</time>
      </trkpt>
      <trkpt lat="48.0295" lon="3.29429">
        <ele>40</ele>
        <time>2013-09-18T16:09:11Z</time>
      </trkpt>
      <trkpt lat="48.02963" lon="3.29468">
        <ele>39</ele>
        <time>2013-09-18T16:09:44Z</time>
      </trkpt>
      <trkpt lat="48.02983" lon="3.29496">
        <ele>40</ele>
        <time>2013-09-18T16:10:05Z</time>
      </trkpt>
      <trkpt lat="48.03008" lon="3.29504">
        <ele>39</ele>
        <time>2013-09-18T16:10:23Z</time>
      </trkpt>
      <trkpt lat="48.03019" lon="3.29504">
        <ele>38</ele>
        <time>2013-09-18T16:10:40Z</time>
      </trkpt>
      <trkpt lat="48.03041" lon="3.29531">
        <ele>39</ele>
        <time>2013-09-18T16:11:20Z</time>
      </trkpt>
      <trkpt lat="48.03059" lon="3.29565">
        <ele>39</ele>
        <time>2013-09-18T16:11:37Z</time>
      </trkpt>
      <trkpt lat="48.03083" lon="3.29584">
        <ele>40</ele>
        <time>2013-09-18T16:11:55Z</time>
      </trkpt>
      <trkpt lat="48.03134" lon="3.29605">
        <ele>40</ele>
        <time>2013-09-18T16:12:51Z</time>
      </trkpt>
      <trkpt lat="48.03164" lon="3.29566">
        <ele>38</ele>
        <time>2013-09-18T16:13:15Z</time>
      </trkpt>
      <trkpt lat="48.03167" lon="3.29581">
        <ele>38</ele>
        <time>2013-09-18T16:13:33Z</time>
      </trkpt>
      <trkpt lat="48.03237" lon="3.29521">
        <ele>46</ele>
        <time>2013-09-18T16:15:10Z</time>
      </trkpt>
      <trkpt lat="48.03264" lon="3.29523">
        <ele>43</ele>
        <time>2013-09-18T16:15:26Z</time>
      </trkpt>
      <trkpt lat="48.03289" lon="3.29506">
        <ele>44</ele>
        <time>2013-09-18T16:16:02Z</time>
      </trkpt>
      <trkpt lat="48.0329" lon="3.29502">
        <ele>45</ele>
        <time>2013-09-18T16:16:04Z</time>
      </trkpt>
      <trkpt lat="48.03301" lon="3.29504">
        <ele>47</ele>
        <time>2013-09-18T16:16:46Z</time>
      </trkpt>
      <trkpt lat="48.03308" lon="3.29508">
        <ele>50</ele>
        <time>2013-09-18T16:17:40Z</time>
      </trkpt>
      <trkpt lat="48.03308" lon="3.29508">
        <ele>50</ele>
        <time>2013-09-18T16:17:40Z</time>
      </trkpt>
      <trkpt lat="48.03306" lon="3.29509">
        <ele>47</ele>
        <time>2013-09-18T16:18:43Z</time>
      </trkpt>
      <trkpt lat="48.03314" lon="3.29502">
        <ele>46</ele>
        <time>2013-09-18T16:19:53Z</time>
      </trkpt>
      <trkpt lat="48.03314" lon="3.29502">
        <ele>46</ele>
        <time>2013-09-18T16:19:53Z</time>
      </trkpt>
    </trkseg>
  </trk>
</gpx>